Time;durP1;ratioP1;P1;durP2;ratioP2;P2;SDS_P1;SDS_P2;PMS_P1;PMS_P2;Temp;Humidity;BMP_temperature;BMP_pressure;BME280_temperature;BME280_humidity;BME280_pressure;Samples;Min_cycle;Max_cycle;Signal;HPM_P1;HPM_P2
2022/07/04 00:02:00;;;;;;;5.53;2.53;;;18.60;99.90;;;;;;5054879;28;20240;-78
2022/07/04 00:04:29;;;;;;;5.17;2.63;;;18.60;99.90;;;;;;5055088;28;20204;-77
2022/07/04 00:06:57;;;;;;;4.63;2.73;;;18.60;99.90;;;;;;5054519;28;20247;-78
2022/07/04 00:09:26;;;;;;;3.37;2.50;;;18.70;99.90;;;;;;5054456;28;20307;-77
2022/07/04 00:11:55;;;;;;;4.43;2.50;;;18.70;99.90;;;;;;5054095;28;20274;-77
2022/07/04 00:14:23;;;;;;;5.43;2.53;;;18.70;99.90;;;;;;5054807;28;20243;-77
2022/07/04 00:16:52;;;;;;;5.30;3.00;;;18.70;99.90;;;;;;5053676;28;20292;-78
2022/07/04 00:19:20;;;;;;;3.47;2.70;;;18.80;99.90;;;;;;5053952;28;20236;-79
2022/07/04 00:21:48;;;;;;;5.37;2.93;;;18.80;99.90;;;;;;5054297;28;20248;-78
2022/07/04 00:24:16;;;;;;;5.23;2.80;;;18.80;99.90;;;;;;5053874;28;20681;-76
2022/07/04 00:26:46;;;;;;;4.57;2.90;;;18.80;99.90;;;;;;5053950;28;20263;-77
2022/07/04 00:29:15;;;;;;;7.43;2.50;;;18.90;99.90;;;;;;5053751;28;20258;-77
2022/07/04 00:31:43;;;;;;;5.93;2.77;;;18.90;99.90;;;;;;5054160;28;20212;-77
2022/07/04 00:34:11;;;;;;;4.70;2.20;;;19.00;99.90;;;;;;5053951;28;20207;-75
2022/07/04 00:36:40;;;;;;;5.13;2.70;;;19.10;99.90;;;;;;5054120;28;20228;-78
2022/07/04 00:39:08;;;;;;;6.80;2.87;;;19.10;99.90;;;;;;5053496;28;20212;-76
2022/07/04 00:41:36;;;;;;;6.60;2.87;;;19.10;99.90;;;;;;5053591;28;20311;-77
2022/07/04 00:44:07;;;;;;;5.87;2.67;;;19.20;99.90;;;;;;5053757;28;20613;-78
2022/07/04 00:46:41;;;;;;;7.80;2.87;;;19.30;99.90;;;;;;5054467;28;20315;-79
2022/07/04 00:49:10;;;;;;;6.80;2.70;;;19.30;99.90;;;;;;5053528;28;20295;-77
2022/07/04 00:51:40;;;;;;;4.87;2.40;;;19.40;99.90;;;;;;5042665;28;20273;-77
2022/07/04 00:54:10;;;;;;;4.13;2.70;;;19.40;99.90;;;;;;5047159;28;20196;-75
2022/07/04 00:56:40;;;;;;;3.47;2.40;;;19.40;99.90;;;;;;5053812;28;20282;-76
2022/07/04 00:59:10;;;;;;;3.77;2.40;;;19.40;99.90;;;;;;5053204;28;20728;-75
2022/07/04 01:01:39;;;;;;;5.70;2.40;;;19.40;99.90;;;;;;5053080;28;20326;-76
2022/07/04 01:04:07;;;;;;;5.40;2.30;;;19.40;99.90;;;;;;5053109;28;20208;-77
2022/07/04 01:06:36;;;;;;;3.43;2.40;;;19.50;99.90;;;;;;5053089;28;20709;-76
2022/07/04 01:09:05;;;;;;;3.93;2.40;;;19.50;99.90;;;;;;5053317;28;20208;-77
2022/07/04 01:11:33;;;;;;;7.00;2.20;;;19.50;99.90;;;;;;5053200;28;20251;-78
2022/07/04 01:14:02;;;;;;;4.37;2.20;;;19.60;99.90;;;;;;5053074;28;20239;-78
2022/07/04 01:16:32;;;;;;;4.43;2.20;;;19.50;99.90;;;;;;5053350;28;20200;-79
2022/07/04 01:19:00;;;;;;;2.77;2.20;;;19.50;99.90;;;;;;5051381;28;20211;-78
2022/07/04 01:21:31;;;;;;;4.60;2.47;;;19.40;99.90;;;;;;5041240;28;20212;-77
2022/07/04 01:23:59;;;;;;;5.10;2.20;;;19.40;99.90;;;;;;5050125;28;20216;-76
2022/07/04 01:26:30;;;;;;;4.43;2.43;;;19.40;99.90;;;;;;5037660;28;20228;-73
2022/07/04 01:28:58;;;;;;;4.67;1.90;;;19.40;99.90;;;;;;5032853;28;20641;-75
2022/07/04 01:31:26;;;;;;;10.60;2.23;;;19.40;99.90;;;;;;5032848;28;20241;-74
2022/07/04 01:33:54;;;;;;;3.07;2.40;;;19.30;99.90;;;;;;5032716;28;20204;-74
2022/07/04 01:36:22;;;;;;;3.30;1.87;;;19.20;99.90;;;;;;5033186;28;20204;-74
2022/07/04 01:38:52;;;;;;;3.00;2.00;;;19.20;99.90;;;;;;5048390;28;20208;-74
2022/07/04 01:41:20;;;;;;;2.13;1.80;;;19.10;99.90;;;;;;5054703;28;20216;-76
2022/07/04 01:43:49;;;;;;;3.27;1.73;;;19.20;99.90;;;;;;5055955;28;20267;-75
2022/07/04 01:46:17;;;;;;;2.67;1.87;;;19.30;99.90;;;;;;5061723;28;20216;-76
2022/07/04 01:48:45;;;;;;;4.03;1.70;;;19.30;99.90;;;;;;5057402;28;20208;-74
2022/07/04 01:51:13;;;;;;;4.03;1.53;;;19.20;99.90;;;;;;5056797;28;20208;-77
2022/07/04 01:53:42;;;;;;;3.60;2.00;;;19.30;99.90;;;;;;5057422;28;20208;-74
2022/07/04 01:56:11;;;;;;;3.07;1.73;;;19.30;99.90;;;;;;5055562;28;20208;-76
2022/07/04 01:58:39;;;;;;;3.07;1.60;;;19.30;99.90;;;;;;5055052;28;20236;-73
2022/07/04 02:03:53;;;;;;;2.27;1.70;;;19.40;99.90;;;;;;5053711;28;20291;-76
2022/07/04 02:06:22;;;;;;;2.60;1.60;;;19.40;99.90;;;;;;5053154;28;20220;-74
2022/07/04 02:14:23;;;;;;;4.10;1.90;;;19.40;99.90;;;;;;5052563;28;20212;-77
2022/07/04 02:16:53;;;;;;;3.87;2.00;;;19.50;99.90;;;;;;5052624;28;20220;-74
2022/07/04 02:19:21;;;;;;;3.47;1.60;;;19.50;99.90;;;;;;5052274;28;20215;-76
2022/07/04 02:21:49;;;;;;;2.67;1.80;;;19.50;99.90;;;;;;5052857;28;20212;-77
2022/07/04 02:24:19;;;;;;;2.07;1.70;;;19.40;99.90;;;;;;5052249;28;20224;-76
2022/07/04 02:26:49;;;;;;;5.30;1.80;;;19.40;99.90;;;;;;5052362;28;20212;-75
2022/07/04 02:29:17;;;;;;;3.30;1.90;;;19.40;99.90;;;;;;5051639;28;20243;-75
2022/07/04 02:31:46;;;;;;;2.53;1.80;;;19.30;99.90;;;;;;5052329;28;20247;-77
2022/07/04 02:34:15;;;;;;;3.00;1.80;;;19.30;99.90;;;;;;5052492;28;20313;-76
2022/07/04 02:36:43;;;;;;;4.27;2.07;;;19.20;99.90;;;;;;5052042;28;20216;-76
2022/07/04 02:39:11;;;;;;;2.27;1.73;;;19.20;99.90;;;;;;5052058;28;20514;-77
2022/07/04 02:41:40;;;;;;;2.20;1.87;;;19.20;99.90;;;;;;5054105;28;20216;-76
2022/07/04 02:44:10;;;;;;;2.60;1.90;;;19.20;99.90;;;;;;5052403;28;20208;-76
2022/07/04 02:46:38;;;;;;;3.23;1.80;;;19.20;99.90;;;;;;5052415;28;20257;-77
2022/07/04 02:49:06;;;;;;;3.17;1.93;;;19.30;99.90;;;;;;5051650;28;20232;-76
2022/07/04 02:51:37;;;;;;;4.23;1.90;;;19.20;99.90;;;;;;5052128;28;20247;-77
2022/07/04 02:54:05;;;;;;;2.67;1.90;;;19.20;99.90;;;;;;5052057;28;20302;-77
2022/07/04 02:56:33;;;;;;;2.67;2.17;;;19.20;99.90;;;;;;5052178;28;20266;-77
2022/07/04 02:59:01;;;;;;;4.40;1.90;;;19.20;99.90;;;;;;5051726;28;20258;-78
2022/07/04 03:01:31;;;;;;;3.57;2.00;;;19.10;99.90;;;;;;5051944;28;20224;-77
2022/07/04 03:04:00;;;;;;;2.20;2.00;;;19.10;99.90;;;;;;5052203;28;20212;-76
2022/07/04 03:06:28;;;;;;;3.97;2.00;;;19.10;99.90;;;;;;5051860;28;20271;-75
2022/07/04 03:08:57;;;;;;;2.70;2.03;;;19.10;99.90;;;;;;5051810;28;20370;-77
2022/07/04 03:11:25;;;;;;;2.30;2.00;;;19.00;99.90;;;;;;5052035;28;20254;-75
2022/07/04 03:13:53;;;;;;;3.50;2.00;;;19.00;99.90;;;;;;5058076;28;20258;-76
2022/07/04 03:16:22;;;;;;;3.17;2.17;;;19.00;99.90;;;;;;5057745;28;20655;-77
2022/07/04 03:18:51;;;;;;;3.17;1.83;;;18.90;99.90;;;;;;5056544;28;20255;-78
2022/07/04 03:21:20;;;;;;;3.47;2.20;;;18.90;99.90;;;;;;5037563;28;20236;-79
2022/07/04 03:23:57;;;;;;;3.03;1.93;;;18.90;99.90;;;;;;5037326;28;20591;-76
2022/07/04 03:26:26;;;;;;;3.53;2.00;;;18.90;99.90;;;;;;5035813;28;20220;-76
2022/07/04 03:28:55;;;;;;;3.83;2.00;;;18.80;99.90;;;;;;5035647;28;20316;-78
2022/07/04 03:31:23;;;;;;;5.27;1.90;;;18.90;99.90;;;;;;5035565;28;20205;-76
2022/07/04 03:33:55;;;;;;;2.43;2.00;;;18.80;99.90;;;;;;5035530;28;20531;-75
2022/07/04 03:36:23;;;;;;;3.63;2.10;;;18.80;99.90;;;;;;5035418;28;20267;-75
2022/07/04 03:38:52;;;;;;;3.73;2.10;;;18.80;99.90;;;;;;5034786;28;20212;-76
2022/07/04 03:41:20;;;;;;;2.13;1.93;;;18.80;99.90;;;;;;5035027;28;20691;-77
2022/07/04 03:43:48;;;;;;;3.63;2.20;;;18.90;99.90;;;;;;5035321;28;20605;-76
2022/07/04 03:46:16;;;;;;;2.20;2.00;;;18.90;99.90;;;;;;5039800;28;20208;-75
2022/07/04 03:48:44;;;;;;;3.07;2.27;;;18.90;99.90;;;;;;5047715;28;20233;-75
2022/07/04 03:51:14;;;;;;;3.73;2.00;;;19.00;99.90;;;;;;5042892;28;20263;-74
2022/07/04 03:53:43;;;;;;;2.70;2.20;;;19.00;99.90;;;;;;5056629;28;20207;-76
2022/07/04 03:56:11;;;;;;;3.53;2.10;;;19.00;99.90;;;;;;5052931;28;20262;-75
2022/07/04 03:58:39;;;;;;;2.20;2.00;;;19.00;99.90;;;;;;5049324;28;20228;-73
2022/07/04 04:01:07;;;;;;;3.17;2.10;;;19.00;99.90;;;;;;5054013;28;20742;-76
2022/07/04 04:06:23;;;;;;;4.27;2.00;;;19.00;99.90;;;;;;5051878;28;20204;-75
2022/07/04 04:08:51;;;;;;;4.73;2.20;;;19.00;99.90;;;;;;5054159;28;20220;-74
2022/07/04 04:11:19;;;;;;;2.60;2.07;;;19.00;99.90;;;;;;5054669;28;20236;-74
2022/07/04 04:13:48;;;;;;;2.43;2.07;;;19.00;99.90;;;;;;5054242;28;20267;-75
2022/07/04 04:16:16;;;;;;;2.90;2.13;;;19.00;99.90;;;;;;5053953;28;20216;-76
2022/07/04 04:18:44;;;;;;;3.37;2.10;;;19.10;99.90;;;;;;5053812;28;20279;-75
2022/07/04 04:21:12;;;;;;;4.37;2.10;;;19.10;99.90;;;;;;5053907;28;20240;-75
2022/07/04 04:23:43;;;;;;;3.93;2.30;;;19.20;99.90;;;;;;5052896;28;20576;-75
2022/07/04 04:26:12;;;;;;;3.07;2.07;;;19.20;99.90;;;;;;5054047;28;20208;-75
2022/07/04 04:28:40;;;;;;;3.70;2.27;;;19.30;99.90;;;;;;5053219;28;20232;-75
2022/07/04 04:31:08;;;;;;;4.57;2.03;;;19.40;99.90;;;;;;5053572;28;20282;-75
2022/07/04 04:33:37;;;;;;;3.67;2.10;;;19.40;99.90;;;;;;5054205;28;20205;-74
2022/07/04 04:36:06;;;;;;;2.93;2.00;;;19.40;99.90;;;;;;5054196;28;20227;-75
2022/07/04 04:38:34;;;;;;;3.23;2.40;;;19.40;99.90;;;;;;5053553;28;20279;-76
2022/07/04 04:41:04;;;;;;;3.23;2.50;;;19.40;99.90;;;;;;5050556;28;20267;-77
2022/07/04 04:43:33;;;;;;;2.77;2.30;;;19.40;99.90;;;;;;5046101;28;20252;-75
2022/07/04 04:46:01;;;;;;;2.50;2.13;;;19.40;99.90;;;;;;5051122;28;20235;-76
2022/07/04 04:48:30;;;;;;;4.23;2.63;;;19.40;99.90;;;;;;5052739;28;20224;-79
2022/07/04 04:50:58;;;;;;;2.43;2.23;;;19.30;99.90;;;;;;5052856;28;20619;-75
2022/07/04 04:53:27;;;;;;;3.50;2.30;;;19.20;99.90;;;;;;5053939;28;20231;-77
2022/07/04 04:55:55;;;;;;;3.27;2.50;;;19.20;99.90;;;;;;5053080;28;20258;-74
2022/07/04 04:58:25;;;;;;;3.17;2.20;;;19.10;99.90;;;;;;5053079;28;20211;-74
2022/07/04 05:00:53;;;;;;;2.97;2.40;;;19.10;99.90;;;;;;5053067;28;20235;-73
2022/07/04 05:03:41;;;;;;;2.43;2.23;;;19.20;99.90;;;;;;5053110;28;20303;-74
2022/07/04 05:06:10;;;;;;;4.50;2.40;;;19.20;99.90;;;;;;5053522;28;20215;-76
2022/07/04 05:08:38;;;;;;;3.40;2.27;;;19.20;99.90;;;;;;5053026;28;20224;-74
2022/07/04 05:11:06;;;;;;;2.73;2.43;;;19.10;99.90;;;;;;5052743;28;20212;-74
2022/07/04 05:13:36;;;;;;;3.63;2.40;;;19.10;99.90;;;;;;5054742;28;20259;-74
2022/07/04 05:16:05;;;;;;;3.80;2.17;;;19.20;99.90;;;;;;5052911;28;20249;-73
2022/07/04 05:18:33;;;;;;;3.03;2.30;;;19.20;99.90;;;;;;5052772;28;20220;-74
2022/07/04 05:21:02;;;;;;;3.47;2.50;;;19.40;99.90;;;;;;5052850;28;20254;-74
2022/07/04 05:23:30;;;;;;;3.80;2.67;;;19.50;99.90;;;;;;5052328;28;20600;-74
2022/07/04 05:25:59;;;;;;;5.07;2.53;;;19.70;99.90;;;;;;5052828;28;20297;-73
2022/07/04 05:28:27;;;;;;;4.17;2.40;;;19.90;99.90;;;;;;5053049;28;20232;-74
2022/07/04 05:30:57;;;;;;;4.77;2.30;;;20.00;99.90;;;;;;5052123;28;20262;-74
2022/07/04 05:33:25;;;;;;;3.50;2.40;;;20.10;99.90;;;;;;5052516;28;20721;-75
2022/07/04 05:35:53;;;;;;;4.40;2.23;;;20.20;99.90;;;;;;5052930;28;20258;-74
2022/07/04 05:38:21;;;;;;;4.13;2.30;;;20.20;99.90;;;;;;5053312;28;20200;-75
2022/07/04 05:40:49;;;;;;;2.50;2.30;;;20.20;99.90;;;;;;5052559;28;20240;-75
2022/07/04 05:43:18;;;;;;;3.83;2.20;;;20.10;99.90;;;;;;5052738;28;20243;-75
2022/07/04 05:45:48;;;;;;;2.80;2.23;;;20.10;99.90;;;;;;5052537;28;20246;-74
2022/07/04 05:48:17;;;;;;;3.33;2.20;;;20.10;99.90;;;;;;5049979;28;20662;-75
2022/07/04 05:50:46;;;;;;;5.63;2.33;;;20.10;99.90;;;;;;5052469;28;20232;-75
2022/07/04 05:53:15;;;;;;;3.33;2.33;;;20.20;99.90;;;;;;5054124;28;20266;-75
2022/07/04 05:55:43;;;;;;;3.77;2.40;;;20.40;99.90;;;;;;5053203;28;20215;-73
2022/07/04 05:58:11;;;;;;;3.70;2.20;;;20.60;99.90;;;;;;5050238;28;20243;-75
2022/07/04 06:00:40;;;;;;;3.37;2.23;;;20.90;99.90;;;;;;5032259;28;20722;-75
2022/07/04 06:03:09;;;;;;;5.67;2.17;;;21.00;99.90;;;;;;5038621;28;20232;-79
2022/07/04 06:05:38;;;;;;;3.80;2.27;;;21.00;99.90;;;;;;5046489;28;20736;-80
2022/07/04 06:08:06;;;;;;;6.50;2.13;;;21.00;99.90;;;;;;5055012;28;20680;-78
2022/07/04 06:10:35;;;;;;;3.77;2.00;;;21.10;99.90;;;;;;5052655;28;20262;-77
2022/07/04 06:13:03;;;;;;;5.73;2.20;;;21.00;99.90;;;;;;5052558;28;20211;-75
2022/07/04 06:15:36;;;;;;;3.23;1.90;;;21.00;99.90;;;;;;5051648;28;20267;-76
2022/07/04 06:18:05;;;;;;;2.73;1.70;;;21.10;99.90;;;;;;5052276;28;20255;-78
2022/07/04 06:20:34;;;;;;;2.90;1.90;;;21.00;99.90;;;;;;5051810;28;20302;-76
2022/07/04 06:23:05;;;;;;;2.13;1.70;;;21.00;99.90;;;;;;5051167;28;20287;-78
2022/07/04 06:25:34;;;;;;;4.13;1.97;;;21.00;99.90;;;;;;5051863;28;20239;-78
2022/07/04 06:28:03;;;;;;;2.13;1.90;;;21.10;99.90;;;;;;5051280;28;20303;-77
2022/07/04 06:30:31;;;;;;;2.83;2.00;;;21.20;99.90;;;;;;5051242;28;20947;-75
2022/07/04 06:33:02;;;;;;;3.97;1.80;;;21.40;99.90;;;;;;5051007;28;20200;-76
2022/07/04 06:35:47;;;;;;;2.53;1.83;;;21.50;99.90;;;;;;5049539;28;20291;-78
2022/07/04 06:38:19;;;;;;;5.27;2.10;;;21.60;99.90;;;;;;5051400;28;20207;-78
2022/07/04 06:40:49;;;;;;;3.40;1.90;;;21.70;99.90;;;;;;5051062;28;20288;-79
2022/07/04 06:43:18;;;;;;;3.77;2.00;;;21.90;99.90;;;;;;5054269;28;20264;-78
2022/07/04 06:45:46;;;;;;;3.97;2.10;;;22.10;99.90;;;;;;5047854;28;20196;-78
2022/07/04 06:48:15;;;;;;;2.80;2.10;;;22.10;99.90;;;;;;5052583;28;20283;-76
2022/07/04 06:50:44;;;;;;;3.57;2.13;;;22.20;99.90;;;;;;5059139;28;20287;-78
2022/07/04 06:53:13;;;;;;;3.17;2.03;;;22.10;99.90;;;;;;5053613;28;20220;-75
2022/07/04 06:55:43;;;;;;;2.77;1.90;;;22.10;99.90;;;;;;5054908;28;20204;-76
2022/07/04 06:58:13;;;;;;;4.67;2.47;;;22.00;99.90;;;;;;5053432;28;20200;-81
2022/07/04 07:00:42;;;;;;;3.13;1.90;;;22.10;99.90;;;;;;5053556;28;20204;-80
2022/07/04 07:03:11;;;;;;;6.67;2.07;;;22.10;99.90;;;;;;5046659;28;20208;-79
2022/07/04 07:05:39;;;;;;;3.40;2.00;;;22.00;99.90;;;;;;5055128;28;20251;-79
2022/07/04 07:08:27;;;;;;;4.07;2.10;;;22.00;99.90;;;;;;5055542;28;20204;-82
2022/07/04 07:10:57;;;;;;;3.13;1.90;;;22.00;99.90;;;;;;5054436;28;20220;-81
2022/07/04 07:13:26;;;;;;;3.50;2.00;;;22.00;99.90;;;;;;5054605;28;20546;-78
2022/07/04 07:15:55;;;;;;;3.27;2.10;;;21.80;99.90;;;;;;5055316;28;20474;-79
2022/07/04 07:18:23;;;;;;;3.70;1.90;;;21.80;99.90;;;;;;5053816;28;20232;-80
2022/07/04 07:20:51;;;;;;;2.37;1.70;;;21.90;99.90;;;;;;5052319;28;20247;-82
2022/07/04 07:23:30;;;;;;;3.73;2.00;;;21.80;99.90;;;;;;5053225;28;20216;-81
2022/07/04 07:26:00;;;;;;;2.73;1.80;;;21.60;99.90;;;;;;5055006;28;20204;-78
2022/07/04 07:28:29;;;;;;;3.37;1.87;;;21.60;99.90;;;;;;5056297;28;20228;-79
2022/07/04 07:30:57;;;;;;;2.97;2.13;;;21.70;99.90;;;;;;5052626;28;20213;-78
2022/07/04 07:33:25;;;;;;;2.23;1.80;;;21.50;99.90;;;;;;5054090;28;20667;-78
2022/07/04 07:35:53;;;;;;;3.20;2.00;;;21.50;99.90;;;;;;5051427;28;20315;-76
2022/07/04 07:38:22;;;;;;;2.57;1.80;;;21.40;99.90;;;;;;5050967;28;20204;-77
2022/07/04 07:40:51;;;;;;;4.07;2.00;;;21.30;99.90;;;;;;5051474;28;20228;-77
2022/07/04 07:43:21;;;;;;;1.83;1.67;;;21.40;99.90;;;;;;5052165;28;20191;-78
2022/07/04 07:45:49;;;;;;;1.97;1.77;;;21.40;99.90;;;;;;5051655;28;20565;-74
2022/07/04 07:48:17;;;;;;;2.93;1.83;;;21.40;99.90;;;;;;5053625;28;20226;-74
2022/07/04 07:50:47;;;;;;;2.90;1.70;;;21.40;99.90;;;;;;5053784;28;20220;-76
2022/07/04 07:53:16;;;;;;;2.70;1.80;;;21.40;99.90;;;;;;5055137;28;20285;-78
2022/07/04 07:55:44;;;;;;;4.27;2.10;;;21.40;99.90;;;;;;5052986;28;20251;-75
2022/07/04 07:58:12;;;;;;;3.10;1.90;;;21.40;99.90;;;;;;5054282;28;20232;-75
2022/07/04 08:00:42;;;;;;;6.73;1.97;;;21.40;99.90;;;;;;5052990;28;20581;-78
2022/07/04 08:06:12;;;;;;;4.30;1.70;;;21.50;99.90;;;;;;5054891;28;20231;-79
2022/07/04 08:08:41;;;;;;;3.00;1.87;;;21.50;99.90;;;;;;5054663;28;20603;-75
2022/07/04 08:11:09;;;;;;;2.33;1.63;;;21.40;99.90;;;;;;5053069;28;20323;-77
2022/07/04 08:13:38;;;;;;;2.30;1.70;;;21.30;99.90;;;;;;5053800;28;20251;-75
2022/07/04 08:16:08;;;;;;;3.73;1.67;;;21.30;99.90;;;;;;5053656;28;20608;-76
2022/07/04 08:18:37;;;;;;;2.97;2.00;;;21.30;99.90;;;;;;5054956;28;20192;-76
2022/07/04 08:21:05;;;;;;;4.63;1.80;;;21.40;99.90;;;;;;5054109;28;20273;-76
2022/07/04 08:23:40;;;;;;;4.07;1.83;;;21.60;99.90;;;;;;5054337;28;20220;-76
2022/07/04 08:26:29;;;;;;;3.50;1.70;;;21.70;99.90;;;;;;5034840;28;20233;-77
2022/07/04 08:28:59;;;;;;;3.37;1.70;;;22.40;99.90;;;;;;5041049;28;20234;-75
2022/07/04 08:31:29;;;;;;;2.50;1.73;;;23.10;99.90;;;;;;5054685;28;20605;-77
2022/07/04 08:34:18;;;;;;;1.97;1.70;;;23.60;99.90;;;;;;5054279;28;20214;-77
2022/07/04 08:36:47;;;;;;;2.73;1.90;;;24.20;99.90;;;;;;5053953;28;20580;-81
2022/07/04 08:39:16;;;;;;;3.00;1.70;;;24.70;99.90;;;;;;5053353;28;20258;-79
2022/07/04 08:41:45;;;;;;;3.67;1.70;;;24.90;99.90;;;;;;5053889;28;20299;-78
2022/07/04 08:44:13;;;;;;;2.70;1.60;;;24.60;99.90;;;;;;5052755;28;20210;-77
2022/07/04 08:46:43;;;;;;;4.80;1.70;;;24.50;99.90;;;;;;5052161;28;20242;-77
2022/07/04 08:49:18;;;;;;;4.00;1.70;;;24.30;99.90;;;;;;5052320;28;20212;-78
2022/07/04 08:51:55;;;;;;;2.67;1.50;;;24.60;99.90;;;;;;5052439;28;20238;-75
2022/07/04 08:59:59;;;;;;;1.67;1.40;;;27.10;99.90;;;;;;5051864;28;20683;-78
2022/07/04 09:02:30;;;;;;;2.10;1.40;;;28.80;99.90;;;;;;5052979;28;20295;-77
2022/07/04 09:05:01;;;;;;;5.03;1.50;;;30.40;99.90;;;;;;5052392;28;20251;-74
2022/07/04 09:07:33;;;;;;;4.90;1.60;;;31.30;99.90;;;;;;5053594;28;20212;-77
2022/07/04 09:10:04;;;;;;;2.17;1.30;;;32.00;99.90;;;;;;5051272;28;20239;-76
2022/07/04 09:12:33;;;;;;;2.55;1.52;;;31.80;99.10;;;;;;5052551;28;20212;-77
2022/07/04 09:15:21;;;;;;;2.55;1.60;;;32.20;98.80;;;;;;5051595;28;20216;-77
2022/07/04 09:17:51;;;;;;;4.57;1.55;;;32.90;96.20;;;;;;5052349;28;20211;-78
2022/07/04 09:20:22;;;;;;;3.25;1.40;;;32.70;96.30;;;;;;5051993;28;20251;-77
2022/07/04 09:22:53;;;;;;;2.80;1.50;;;33.40;94.70;;;;;;5052292;28;20211;-78
2022/07/04 09:25:22;;;;;;;3.03;1.35;;;33.30;94.30;;;;;;5052613;28;20274;-81
2022/07/04 09:28:03;;;;;;;3.75;1.60;;;33.70;93.60;;;;;;5051280;28;20255;-77
2022/07/04 09:30:32;;;;;;;1.75;1.42;;;33.90;93.70;;;;;;5054314;28;20196;-76
2022/07/04 09:33:05;;;;;;;4.15;1.52;;;34.20;92.20;;;;;;5054635;28;20227;-76
2022/07/04 09:35:34;;;;;;;2.90;1.60;;;34.60;91.60;;;;;;5051347;28;20224;-75
2022/07/04 09:38:05;;;;;;;3.42;1.50;;;34.40;91.30;;;;;;5048477;28;20232;-76
2022/07/04 09:41:24;;;;;;;1.98;1.38;;;33.90;91.20;;;;;;5036560;28;20204;-74
2022/07/04 09:43:26;;;;;;;3.80;1.65;;;33.80;90.60;;;;;;5051693;28;20262;-76
2022/07/04 09:45:57;;;;;;;2.70;1.48;;;33.80;91.00;;;;;;5032435;28;20204;-76
2022/07/04 09:48:27;;;;;;;1.95;1.35;;;33.90;91.80;;;;;;5033817;28;20617;-78
2022/07/04 09:51:04;;;;;;;3.00;1.42;;;34.50;89.40;;;;;;5040387;28;20215;-77
2022/07/04 09:53:33;;;;;;;1.67;1.20;;;34.00;89.60;;;;;;5049391;28;20222;-77
2022/07/04 09:56:01;;;;;;;3.00;1.50;;;34.30;89.40;;;;;;5052489;28;20228;-76
2022/07/04 09:58:30;;;;;;;3.30;1.48;;;34.30;90.90;;;;;;5051540;28;20287;-77
2022/07/04 10:01:00;;;;;;;2.92;1.42;;;34.40;89.30;;;;;;5051141;28;20260;-78
2022/07/04 10:03:32;;;;;;;2.58;1.20;;;34.00;88.40;;;;;;5052793;28;20192;-77
2022/07/04 10:06:06;;;;;;;2.85;1.30;;;33.90;88.30;;;;;;5052281;28;20569;-77
2022/07/04 10:08:35;;;;;;;1.65;1.10;;;33.90;88.40;;;;;;5051412;28;20550;-77
2022/07/04 10:11:05;;;;;;;4.43;1.42;;;34.10;84.70;;;;;;5051871;28;20565;-75
2022/07/04 10:13:37;;;;;;;1.95;1.20;;;33.90;82.20;;;;;;5052174;28;20200;-76
2022/07/04 10:16:17;;;;;;;3.08;1.20;;;33.80;82.60;;;;;;5051766;28;20228;-76
2022/07/04 10:18:52;;;;;;;3.90;1.20;;;33.50;83.20;;;;;;5051559;28;20200;-76
2022/07/04 10:21:21;;;;;;;2.15;1.00;;;33.60;80.80;;;;;;5048317;28;20615;-75
2022/07/04 10:23:51;;;;;;;2.17;0.90;;;33.60;82.50;;;;;;5051679;28;20231;-75
2022/07/04 10:26:20;;;;;;;2.17;1.10;;;33.60;81.00;;;;;;5051640;28;20196;-76
2022/07/04 10:28:48;;;;;;;2.60;1.30;;;33.50;84.60;;;;;;5051638;28;20200;-77
2022/07/04 10:31:17;;;;;;;3.38;1.30;;;33.60;84.60;;;;;;5051922;28;20242;-76
2022/07/04 10:33:47;;;;;;;2.88;1.20;;;33.60;79.40;;;;;;5051783;28;20227;-76
2022/07/04 10:36:18;;;;;;;1.65;1.00;;;33.70;84.70;;;;;;5051724;28;20247;-77
2022/07/04 10:38:52;;;;;;;1.10;0.90;;;33.80;80.10;;;;;;5049926;28;20258;-77
2022/07/04 10:41:22;;;;;;;1.88;1.17;;;33.80;83.40;;;;;;5052118;28;20204;-78
2022/07/04 10:44:00;;;;;;;1.45;1.10;;;33.90;78.10;;;;;;5051905;28;20258;-78
2022/07/04 10:46:33;;;;;;;1.20;1.00;;;33.90;78.60;;;;;;5052613;28;20196;-76
2022/07/04 10:49:03;;;;;;;1.48;1.08;;;33.60;81.30;;;;;;5059148;28;20231;-76
2022/07/04 10:51:39;;;;;;;1.70;1.10;;;33.40;77.60;;;;;;5071217;28;20291;-79
2022/07/04 10:54:11;;;;;;;1.77;1.20;;;33.10;79.30;;;;;;5072197;28;20208;-74
2022/07/04 10:56:44;;;;;;;1.50;0.90;;;32.50;79.70;;;;;;5072501;28;20185;-76
2022/07/04 10:59:16;;;;;;;2.10;1.00;;;32.60;81.70;;;;;;5055760;28;20227;-77
2022/07/04 11:01:58;;;;;;;1.02;0.93;;;32.20;82.20;;;;;;5073428;28;20220;-74
2022/07/04 11:04:48;;;;;;;4.45;1.17;;;31.70;83.20;;;;;;5057138;28;20283;-77
2022/07/04 11:07:19;;;;;;;1.63;1.10;;;31.20;84.70;;;;;;5057787;28;20196;-77
2022/07/04 11:10:07;;;;;;;1.58;1.13;;;30.90;85.50;;;;;;5067632;28;20197;-74
2022/07/04 11:13:06;;;;;;;1.92;1.08;;;30.60;86.70;;;;;;5053155;28;20316;-75
2022/07/04 11:16:01;;;;;;;2.45;1.10;;;29.90;88.80;;;;;;5058598;28;20206;-75
2022/07/04 11:18:30;;;;;;;1.65;1.23;;;29.40;91.30;;;;;;5064506;28;20258;-75
2022/07/04 11:20:58;;;;;;;7.78;1.27;;;29.30;91.00;;;;;;5060206;28;20209;-73
2022/07/04 11:23:28;;;;;;;1.45;1.10;;;29.30;92.10;;;;;;5070396;28;20224;-77
2022/07/04 11:26:02;;;;;;;2.03;1.10;;;29.30;90.50;;;;;;5072873;28;20215;-76
2022/07/04 11:28:35;;;;;;;1.85;1.13;;;29.10;90.80;;;;;;5073144;28;20201;-77
2022/07/04 11:31:14;;;;;;;2.13;1.00;;;29.10;91.20;;;;;;5073077;28;20211;-76
2022/07/04 11:33:45;;;;;;;1.65;1.45;;;29.10;90.60;;;;;;5075013;28;20243;-75
2022/07/04 11:36:17;;;;;;;2.57;1.30;;;29.00;92.40;;;;;;5075995;28;20235;-76
2022/07/04 11:38:53;;;;;;;4.55;1.50;;;29.20;90.90;;;;;;5074627;28;20196;-77
2022/07/04 11:47:07;;;;;;;1.77;1.23;;;28.90;92.80;;;;;;5058356;28;20667;-75
2022/07/04 11:49:35;;;;;;;2.30;1.30;;;29.50;92.80;;;;;;5058193;28;20265;-76
2022/07/04 11:52:04;;;;;;;1.30;1.20;;;29.60;92.90;;;;;;5057128;28;20604;-75
2022/07/04 11:54:34;;;;;;;4.57;1.40;;;29.80;92.50;;;;;;5055681;28;20315;-78
2022/07/04 11:57:23;;;;;;;1.17;1.08;;;29.70;93.10;;;;;;5057079;28;20274;-75
2022/07/04 12:00:00;;;;;;;1.65;1.20;;;29.70;93.60;;;;;;5057086;28;20629;-74
2022/07/04 12:02:29;;;;;;;1.90;1.00;;;29.30;94.10;;;;;;5056275;28;20683;-74
2022/07/04 12:04:58;;;;;;;1.33;1.20;;;29.20;92.20;;;;;;5055210;28;20236;-77
2022/07/04 12:07:28;;;;;;;3.43;1.30;;;29.10;92.30;;;;;;5055579;28;20208;-74
2022/07/04 12:10:07;;;;;;;1.37;1.27;;;29.20;93.10;;;;;;5055235;28;20193;-73
2022/07/04 12:12:35;;;;;;;3.83;1.40;;;29.20;93.10;;;;;;5054012;28;20702;-74
2022/07/04 12:15:06;;;;;;;2.07;1.40;;;29.10;93.40;;;;;;5054879;28;20238;-77
2022/07/04 12:17:36;;;;;;;2.50;1.30;;;29.50;94.30;;;;;;5054217;28;20208;-74
2022/07/04 12:20:13;;;;;;;1.60;1.20;;;29.50;93.90;;;;;;5053530;28;20208;-73
2022/07/04 12:22:44;;;;;;;2.33;1.17;;;29.70;93.10;;;;;;5053075;28;20362;-73
2022/07/04 12:25:24;;;;;;;2.43;1.37;;;29.70;93.50;;;;;;5053455;28;20223;-74
2022/07/04 12:27:55;;;;;;;4.13;1.47;;;29.60;92.30;;;;;;5053609;28;20281;-73
2022/07/04 12:30:23;;;;;;;2.17;1.10;;;29.60;93.50;;;;;;5053150;28;20215;-73
2022/07/04 12:32:53;;;;;;;2.50;1.23;;;29.30;92.50;;;;;;5052274;28;20235;-74
2022/07/04 12:35:47;;;;;;;4.17;1.57;;;29.20;92.90;;;;;;5053602;28;20211;-73
2022/07/04 12:38:18;;;;;;;2.53;1.50;;;29.10;93.80;;;;;;5052992;28;20215;-75
2022/07/04 12:40:56;;;;;;;1.60;1.07;;;28.80;93.50;;;;;;5051427;28;20231;-76
2022/07/04 12:43:26;;;;;;;2.30;1.33;;;28.90;92.50;;;;;;5051428;28;20200;-77
2022/07/04 12:45:55;;;;;;;2.10;1.07;;;29.10;94.10;;;;;;5052493;28;20720;-75
2022/07/04 12:48:27;;;;;;;2.57;1.10;;;29.00;93.40;;;;;;5051750;28;20262;-73
2022/07/04 12:51:10;;;;;;;3.80;1.47;;;29.10;93.20;;;;;;5033361;28;20196;-77
2022/07/04 12:53:39;;;;;;;1.30;1.20;;;29.30;93.80;;;;;;5033213;28;20232;-76
2022/07/04 12:56:09;;;;;;;2.53;1.20;;;29.30;93.50;;;;;;5045177;28;20208;-75
2022/07/04 12:58:38;;;;;;;2.87;1.50;;;29.60;93.70;;;;;;5053229;28;20212;-76
2022/07/04 13:01:07;;;;;;;2.20;1.37;;;29.40;94.60;;;;;;5053201;28;20223;-78
2022/07/04 13:03:35;;;;;;;2.83;1.20;;;29.30;94.60;;;;;;5052407;28;20667;-77
2022/07/04 13:06:03;;;;;;;3.57;1.43;;;29.60;92.70;;;;;;5052933;28;20246;-76
2022/07/04 13:08:32;;;;;;;3.30;1.30;;;29.60;94.80;;;;;;5052785;28;20197;-76
2022/07/04 13:13:50;;;;;;;1.30;1.20;;;29.20;94.70;;;;;;5053312;28;20219;-74
2022/07/04 13:16:18;;;;;;;3.67;1.50;;;28.70;96.50;;;;;;5054026;28;20243;-74
2022/07/04 13:18:47;;;;;;;1.73;1.33;;;28.80;95.80;;;;;;5055665;28;20208;-77
2022/07/04 13:21:16;;;;;;;2.33;1.37;;;28.60;95.60;;;;;;5056937;28;20213;-76
2022/07/04 13:23:45;;;;;;;1.67;1.50;;;28.10;98.20;;;;;;5054228;28;20211;-74
2022/07/04 13:26:13;;;;;;;1.40;1.30;;;27.80;97.70;;;;;;5054553;28;20196;-75
2022/07/04 13:28:42;;;;;;;1.50;1.30;;;27.80;98.30;;;;;;5049794;28;20278;-74
2022/07/04 13:31:11;;;;;;;2.13;1.40;;;27.90;99.20;;;;;;5052511;28;20212;-75
2022/07/04 13:33:40;;;;;;;3.73;1.53;;;27.90;99.20;;;;;;5061619;28;20228;-74